Time;durP1;ratioP1;P1;durP2;ratioP2;P2;SDS_P1;SDS_P2;PMS_P1;PMS_P2;Temp;Humidity;BMP_temperature;BMP_pressure;BME280_temperature;BME280_humidity;BME280_pressure;Samples;Min_cycle;Max_cycle;Signal;HPM_P1;HPM_P2
2022/01/28 00:04:46;;;;;;;1.00;0.30;;;8.10;45.50;;;;;;5074963;28;20207;-50
2022/01/28 00:07:11;;;;;;;1.05;0.30;;;8.20;45.40;;;;;;5074567;28;20697;-50
2022/01/28 00:09:37;;;;;;;0.90;0.20;;;8.30;45.30;;;;;;5074638;28;20199;-50
2022/01/28 00:12:03;;;;;;;1.07;0.30;;;8.30;45.10;;;;;;5074510;28;20171;-50
2022/01/28 00:14:38;;;;;;;0.95;0.30;;;8.40;45.30;;;;;;5074313;28;20171;-50
2022/01/28 00:38:48;;;;;;;2.35;0.50;;;8.20;44.20;;;;;;5074372;28;20172;-50
2022/01/28 00:41:14;;;;;;;1.00;0.43;;;8.10;44.20;;;;;;5073919;28;20164;-50
2022/01/28 00:43:40;;;;;;;1.00;0.30;;;8.20;44.20;;;;;;5072653;28;20223;-50
2022/01/28 00:46:06;;;;;;;0.93;0.20;;;8.10;44.20;;;;;;5072565;28;20172;-50
2022/01/28 00:48:32;;;;;;;1.00;0.33;;;8.20;44.10;;;;;;5074040;28;20173;-50
2022/01/28 00:50:58;;;;;;;2.83;0.67;;;8.20;44.20;;;;;;5073782;28;20750;-50
2022/01/28 00:53:23;;;;;;;1.00;0.40;;;8.30;44.00;;;;;;5074030;28;20202;-50
2022/01/28 00:55:49;;;;;;;0.90;0.20;;;7.10;43.00;;;;;;5073732;28;20552;-50
2022/01/28 00:58:15;;;;;;;0.93;0.30;;;8.30;43.80;;;;;;5074001;28;20220;-50
2022/01/28 01:00:41;;;;;;;1.17;0.33;;;8.30;43.40;;;;;;5072434;28;20787;-50
2022/01/28 01:03:07;;;;;;;1.00;0.30;;;8.20;43.50;;;;;;5055694;28;20946;-50
2022/01/28 01:05:34;;;;;;;1.00;0.40;;;8.20;43.60;;;;;;5072369;28;20169;-50
2022/01/28 01:08:04;;;;;;;1.00;0.30;;;8.30;43.30;;;;;;5073586;28;20253;-50
2022/01/28 01:10:30;;;;;;;1.05;0.30;;;8.20;43.00;;;;;;5072332;28;20263;-50
2022/01/28 01:12:56;;;;;;;1.10;0.50;;;8.10;43.30;;;;;;5073583;28;20249;-50
2022/01/28 01:15:26;;;;;;;1.00;0.30;;;8.10;42.90;;;;;;5072324;28;20287;-50
2022/01/28 01:23:24;;;;;;;1.10;0.47;;;8.30;42.20;;;;;;5072320;28;20680;-50
2022/01/28 01:25:55;;;;;;;1.00;0.40;;;8.20;41.90;;;;;;5073513;28;20403;-50
2022/01/28 01:28:26;;;;;;;0.90;0.20;;;8.10;42.30;;;;;;5073579;28;20164;-50
2022/01/28 01:30:52;;;;;;;1.00;0.40;;;8.00;42.10;;;;;;5076727;28;20163;-50
2022/01/28 01:33:20;;;;;;;0.97;0.43;;;8.10;42.90;;;;;;5077494;28;20169;-50
2022/01/28 01:35:45;;;;;;;1.25;0.50;;;8.10;42.60;;;;;;5077500;28;20213;-50
2022/01/28 01:38:12;;;;;;;1.40;0.43;;;8.10;42.30;;;;;;5077459;28;20166;-50
2022/01/28 01:40:51;;;;;;;1.90;0.82;;;8.20;42.40;;;;;;5077557;28;20165;-50
2022/01/28 01:43:30;;;;;;;1.40;0.55;;;8.20;42.10;;;;;;5077382;28;20260;-49
2022/01/28 01:46:09;;;;;;;1.30;0.80;;;8.10;42.70;;;;;;5077354;28;20149;-50
2022/01/28 01:54:04;;;;;;;1.00;0.40;;;8.00;42.40;;;;;;5077444;28;20213;-50
2022/01/28 01:56:30;;;;;;;1.00;0.50;;;8.00;42.80;;;;;;5077132;28;20615;-50
2022/01/28 01:58:57;;;;;;;1.02;0.35;;;8.00;42.30;;;;;;5075756;28;20268;-50
2022/01/28 02:01:23;;;;;;;0.90;0.20;;;8.00;42.30;;;;;;5077109;28;20169;-50
2022/01/28 02:03:49;;;;;;;2.40;1.10;;;8.00;42.40;;;;;;5077064;28;20170;-50
2022/01/28 02:06:19;;;;;;;1.00;0.50;;;7.90;41.90;;;;;;5076855;28;20628;-50
2022/01/28 02:08:45;;;;;;;1.10;0.47;;;7.90;42.50;;;;;;5075623;28;20515;-50
2022/01/28 02:11:27;;;;;;;1.00;0.40;;;8.00;41.90;;;;;;5076801;28;20533;-50
2022/01/28 02:13:57;;;;;;;1.00;0.30;;;8.00;41.40;;;;;;5076673;28;20176;-50
2022/01/28 02:16:23;;;;;;;1.10;0.60;;;8.00;42.00;;;;;;5076677;28;20199;-50
2022/01/28 02:18:48;;;;;;;1.47;0.80;;;8.00;41.80;;;;;;5076696;28;20219;-50
2022/01/28 02:21:17;;;;;;;1.00;0.40;;;8.20;41.40;;;;;;5075318;28;20173;-50
2022/01/28 02:23:46;;;;;;;1.20;0.70;;;8.20;41.50;;;;;;5076370;28;20213;-50
2022/01/28 02:26:13;;;;;;;1.67;1.02;;;8.20;41.80;;;;;;5076473;28;20274;-50
2022/01/28 02:28:40;;;;;;;1.20;0.70;;;8.10;42.50;;;;;;5076565;28;20175;-50
2022/01/28 02:31:06;;;;;;;1.00;0.30;;;8.00;43.00;;;;;;5076487;28;20168;-50
2022/01/28 02:33:32;;;;;;;1.00;0.30;;;7.90;43.60;;;;;;5076557;28;20311;-50
2022/01/28 02:36:04;;;;;;;1.00;0.40;;;7.80;43.60;;;;;;5074993;28;20300;-50
2022/01/28 02:38:30;;;;;;;6.88;0.60;;;7.90;43.60;;;;;;5076560;28;20149;-50
2022/01/28 02:40:58;;;;;;;1.00;0.30;;;8.00;44.20;;;;;;5075524;28;20581;-50
2022/01/28 02:43:40;;;;;;;1.10;0.50;;;8.10;43.20;;;;;;5076135;28;20178;-50
2022/01/28 02:46:13;;;;;;;1.02;0.45;;;8.10;43.00;;;;;;5076244;28;20257;-50
2022/01/28 02:48:51;;;;;;;1.00;0.50;;;8.10;43.40;;;;;;5076397;28;20162;-50
2022/01/28 02:51:20;;;;;;;5.85;0.98;;;8.00;43.30;;;;;;5076064;28;20157;-50
2022/01/28 02:53:58;;;;;;;2.20;0.73;;;7.90;43.60;;;;;;5076168;28;20234;-50
2022/01/28 02:57:09;;;;;;;1.10;0.63;;;7.90;43.60;;;;;;5076054;28;20195;-50
2022/01/28 02:59:10;;;;;;;1.45;0.40;;;7.90;43.20;;;;;;5075427;28;20187;-50
2022/01/28 03:01:36;;;;;;;1.00;0.30;;;7.80;43.10;;;;;;5075954;28;20169;-50
2022/01/28 03:04:04;;;;;;;1.30;0.50;;;7.90;42.80;;;;;;5075870;28;20168;-50
2022/01/28 03:06:29;;;;;;;1.70;0.75;;;7.90;42.40;;;;;;5075993;28;20172;-50
2022/01/28 03:09:02;;;;;;;1.40;0.70;;;7.80;42.90;;;;;;5075730;28;20176;-50
2022/01/28 03:14:16;;;;;;;1.40;0.50;;;7.70;43.30;;;;;;5074784;28;20173;-50
2022/01/28 03:19:22;;;;;;;1.40;0.40;;;7.80;43.10;;;;;;5075642;28;20610;-50
2022/01/28 03:21:58;;;;;;;1.10;0.60;;;7.80;42.90;;;;;;5075636;28;20188;-50
2022/01/28 03:24:26;;;;;;;1.20;0.75;;;7.80;42.90;;;;;;5074669;28;20315;-50
2022/01/28 03:26:57;;;;;;;2.45;0.50;;;7.90;42.70;;;;;;5075649;28;20173;-50
2022/01/28 03:29:23;;;;;;;2.95;0.80;;;8.00;42.50;;;;;;5075674;28;20192;-50
2022/01/28 03:31:49;;;;;;;1.43;0.87;;;8.10;42.20;;;;;;5075293;28;20215;-50
2022/01/28 03:34:14;;;;;;;1.00;0.40;;;8.00;42.30;;;;;;5075407;28;20169;-50
2022/01/28 03:36:40;;;;;;;1.27;0.50;;;8.10;42.30;;;;;;5075390;28;20283;-50
2022/01/28 03:39:08;;;;;;;1.10;0.40;;;8.20;42.00;;;;;;5075155;28;20223;-50
2022/01/28 03:41:34;;;;;;;2.95;1.63;;;8.10;41.80;;;;;;5075289;28;20415;-50
2022/01/28 03:44:00;;;;;;;1.13;0.40;;;8.20;41.90;;;;;;5075082;28;20292;-50
2022/01/28 03:46:28;;;;;;;1.60;0.60;;;8.20;41.90;;;;;;5074951;28;20172;-50
2022/01/28 03:48:55;;;;;;;1.00;0.40;;;8.10;42.00;;;;;;5074938;28;20649;-50
2022/01/28 03:51:21;;;;;;;1.95;0.85;;;8.10;41.70;;;;;;5073684;28;20174;-50
2022/01/28 03:53:47;;;;;;;3.03;1.27;;;8.00;42.30;;;;;;5073603;28;20192;-50
2022/01/28 03:56:14;;;;;;;2.75;0.65;;;8.00;41.90;;;;;;5074832;28;20691;-50
2022/01/28 03:58:39;;;;;;;1.10;0.50;;;7.90;41.60;;;;;;5073527;28;20185;-50
2022/01/28 04:01:12;;;;;;;1.10;0.50;;;8.00;41.90;;;;;;5074831;28;20323;-50
2022/01/28 04:03:45;;;;;;;7.95;0.82;;;8.10;41.80;;;;;;5074710;28;20166;-50
2022/01/28 04:11:41;;;;;;;1.20;0.68;;;8.10;41.60;;;;;;5074828;28;20210;-50
2022/01/28 04:19:32;;;;;;;1.00;0.30;;;8.20;41.10;;;;;;5074354;28;20564;-50
2022/01/28 04:21:57;;;;;;;1.65;0.70;;;8.20;41.20;;;;;;5073010;28;20176;-50
2022/01/28 04:24:23;;;;;;;1.00;0.50;;;8.20;40.60;;;;;;5072707;28;20242;-51
2022/01/28 04:26:49;;;;;;;0.90;0.30;;;8.20;40.80;;;;;;5074206;28;20158;-50
2022/01/28 04:29:15;;;;;;;1.47;0.70;;;8.20;41.10;;;;;;5074097;28;20575;-50
2022/01/28 04:31:45;;;;;;;1.33;0.68;;;8.30;40.80;;;;;;5074086;28;20906;-50
2022/01/28 04:34:11;;;;;;;1.55;0.60;;;8.30;41.00;;;;;;5074115;28;20168;-50
2022/01/28 04:36:44;;;;;;;3.92;0.75;;;8.30;41.30;;;;;;5073846;28;20200;-50
2022/01/28 04:39:22;;;;;;;1.70;1.10;;;8.30;41.90;;;;;;5074240;28;20173;-50
2022/01/28 04:42:07;;;;;;;1.00;0.35;;;8.20;41.20;;;;;;5074259;28;20245;-50
2022/01/28 04:45:00;;;;;;;2.40;0.70;;;8.30;41.70;;;;;;5073932;28;20158;-50
2022/01/28 04:50:37;;;;;;;1.10;0.50;;;8.20;41.80;;;;;;5074120;28;20173;-50
2022/01/28 04:58:02;;;;;;;1.10;0.40;;;8.20;41.80;;;;;;5073689;28;20177;-50
2022/01/28 05:00:59;;;;;;;0.93;0.30;;;8.10;41.50;;;;;;5073742;28;20166;-50
2022/01/28 05:14:53;;;;;;;1.20;0.40;;;8.10;44.40;;;;;;5073495;28;20162;-50
2022/01/28 05:28:18;;;;;;;1.30;0.65;;;7.80;44.80;;;;;;5073422;28;20179;-50
2022/01/28 05:30:44;;;;;;;1.77;0.60;;;7.90;44.50;;;;;;5073555;28;20211;-50
2022/01/28 05:33:10;;;;;;;1.10;0.60;;;7.90;44.20;;;;;;5073373;28;20164;-50
2022/01/28 05:35:35;;;;;;;0.97;0.30;;;7.90;44.10;;;;;;5073244;28;20242;-50
2022/01/28 05:38:01;;;;;;;1.10;0.50;;;8.00;44.10;;;;;;5073318;28;20256;-50
2022/01/28 05:40:27;;;;;;;1.00;0.20;;;8.00;43.60;;;;;;5073206;28;20167;-50
2022/01/28 05:42:52;;;;;;;6.33;0.60;;;8.00;43.40;;;;;;5073350;28;20414;-50
2022/01/28 05:45:19;;;;;;;1.47;0.40;;;8.00;43.90;;;;;;5073151;28;20162;-50
2022/01/28 05:47:44;;;;;;;1.00;0.40;;;7.90;43.90;;;;;;5073175;28;20522;-50
2022/01/28 05:50:12;;;;;;;1.27;0.60;;;7.70;43.90;;;;;;5073439;28;20188;-50
2022/01/28 05:52:37;;;;;;;1.30;0.50;;;7.70;44.20;;;;;;5071884;28;20181;-50
2022/01/28 05:55:04;;;;;;;4.40;0.77;;;7.70;44.70;;;;;;5073018;28;20230;-50
2022/01/28 05:57:30;;;;;;;1.20;0.70;;;7.60;44.80;;;;;;5073120;28;20241;-50
2022/01/28 05:59:55;;;;;;;1.00;0.40;;;7.80;44.50;;;;;;5073080;28;20173;-50
2022/01/28 06:02:21;;;;;;;1.33;0.80;;;7.70;44.60;;;;;;5073250;28;20411;-50
2022/01/28 06:04:47;;;;;;;3.13;0.43;;;7.80;44.20;;;;;;5073240;28;20175;-50
2022/01/28 06:07:13;;;;;;;1.10;0.52;;;7.70;44.50;;;;;;5073129;28;20169;-50
2022/01/28 06:09:38;;;;;;;1.50;0.60;;;7.70;44.60;;;;;;5072813;28;20226;-50
2022/01/28 06:12:05;;;;;;;2.23;0.90;;;7.70;44.40;;;;;;5072953;28;20165;-50
2022/01/28 06:14:30;;;;;;;1.92;0.70;;;7.70;44.10;;;;;;5072681;28;20196;-50
2022/01/28 06:16:56;;;;;;;1.20;0.47;;;7.70;44.60;;;;;;5074391;28;20171;-50
2022/01/28 06:19:22;;;;;;;1.00;0.43;;;7.70;44.60;;;;;;5075704;28;20586;-50
2022/01/28 06:21:47;;;;;;;2.30;1.13;;;7.70;44.50;;;;;;5075262;28;20570;-50
2022/01/28 06:24:13;;;;;;;1.87;0.60;;;7.70;44.60;;;;;;5076297;28;20212;-50
2022/01/28 06:26:40;;;;;;;1.00;0.30;;;7.70;44.90;;;;;;5076553;28;20644;-50
2022/01/28 06:29:06;;;;;;;1.05;0.40;;;7.80;44.60;;;;;;5076413;28;20186;-50
2022/01/28 06:31:32;;;;;;;2.90;0.80;;;7.80;44.70;;;;;;5076343;28;20226;-50
2022/01/28 06:33:57;;;;;;;3.40;1.17;;;7.80;44.90;;;;;;5076274;28;20165;-50
2022/01/28 06:36:23;;;;;;;2.07;0.87;;;7.80;44.40;;;;;;5076262;28;20660;-50
2022/01/28 06:38:49;;;;;;;1.00;0.37;;;7.80;44.30;;;;;;5076111;28;20164;-50
2022/01/28 06:41:15;;;;;;;1.00;0.40;;;7.90;44.00;;;;;;5074962;28;20200;-50
2022/01/28 06:43:40;;;;;;;1.43;0.80;;;7.80;44.10;;;;;;5074766;28;20172;-50
2022/01/28 06:46:06;;;;;;;3.57;0.53;;;7.80;44.40;;;;;;5076274;28;20629;-50
2022/01/28 06:48:32;;;;;;;1.00;0.50;;;7.80;44.80;;;;;;5075936;28;20412;-50
2022/01/28 06:50:58;;;;;;;3.90;1.10;;;7.80;45.10;;;;;;5075984;28;20499;-50
2022/01/28 06:53:24;;;;;;;2.13;0.63;;;7.90;45.00;;;;;;5076166;28;20438;-50
2022/01/28 06:55:49;;;;;;;4.70;0.87;;;8.00;44.60;;;;;;5075848;28;20271;-50
2022/01/28 06:58:15;;;;;;;1.47;0.33;;;8.00;44.10;;;;;;5076027;28;20169;-50
2022/01/28 07:00:41;;;;;;;1.40;0.60;;;7.90;43.60;;;;;;5075841;28;20257;-50
2022/01/28 07:03:12;;;;;;;2.77;0.77;;;7.80;43.60;;;;;;5074499;28;20164;-50
2022/01/28 07:05:39;;;;;;;1.00;0.30;;;7.70;44.10;;;;;;5075923;28;20161;-50
2022/01/28 07:08:05;;;;;;;0.90;0.30;;;7.80;44.40;;;;;;5075748;28;20176;-50
2022/01/28 07:10:31;;;;;;;0.90;0.30;;;7.80;44.10;;;;;;5075639;28;20547;-50
2022/01/28 07:12:57;;;;;;;1.00;0.30;;;7.80;44.40;;;;;;5075635;28;20183;-50
2022/01/28 07:15:25;;;;;;;1.00;0.30;;;7.90;44.10;;;;;;5075822;28;20204;-50
2022/01/28 07:17:55;;;;;;;1.30;0.40;;;7.90;44.10;;;;;;5075733;28;20192;-50
2022/01/28 07:20:20;;;;;;;1.10;0.45;;;7.90;44.00;;;;;;5075463;28;20309;-50
2022/01/28 07:22:46;;;;;;;1.30;0.40;;;7.90;43.90;;;;;;5075724;28;20252;-50
2022/01/28 07:25:12;;;;;;;1.20;0.43;;;7.90;44.10;;;;;;5075255;28;20307;-50
2022/01/28 07:27:38;;;;;;;2.60;0.70;;;7.90;43.70;;;;;;5075146;28;20171;-50
2022/01/28 07:30:06;;;;;;;1.30;0.30;;;7.80;44.50;;;;;;5075271;28;20910;-50
2022/01/28 07:32:32;;;;;;;1.25;0.65;;;7.80;44.60;;;;;;5075740;28;20185;-50
2022/01/28 07:34:58;;;;;;;1.00;0.50;;;7.70;44.80;;;;;;5073812;28;20568;-50
2022/01/28 07:37:24;;;;;;;1.67;1.03;;;7.80;44.80;;;;;;5075160;28;20819;-50
2022/01/28 07:39:50;;;;;;;1.10;0.30;;;7.90;44.90;;;;;;5075118;28;20416;-50
2022/01/28 07:42:17;;;;;;;1.10;0.70;;;7.90;44.20;;;;;;5075483;28;20570;-50
2022/01/28 07:44:43;;;;;;;2.30;0.80;;;7.90;44.00;;;;;;5075056;28;20184;-50
2022/01/28 07:47:09;;;;;;;2.10;0.83;;;8.00;43.90;;;;;;5073642;28;20260;-51
2022/01/28 07:49:34;;;;;;;1.00;0.40;;;8.00;43.80;;;;;;5075046;28;20813;-50
2022/01/28 07:52:00;;;;;;;3.67;0.60;;;7.80;44.00;;;;;;5075170;28;20240;-50
2022/01/28 07:54:26;;;;;;;1.23;0.30;;;7.80;43.70;;;;;;5073833;28;20600;-50
2022/01/28 07:56:53;;;;;;;1.10;0.30;;;7.70;44.30;;;;;;5074751;28;20680;-50
2022/01/28 07:59:20;;;;;;;1.00;0.35;;;7.70;44.50;;;;;;5074967;28;20805;-50
2022/01/28 08:01:46;;;;;;;2.47;0.40;;;7.80;44.70;;;;;;5056787;28;20180;-50
2022/01/28 08:04:11;;;;;;;1.27;0.67;;;7.70;44.80;;;;;;5073362;28;20540;-50
2022/01/28 08:06:37;;;;;;;2.23;0.50;;;7.70;44.40;;;;;;5074693;28;20165;-50
2022/01/28 08:09:03;;;;;;;1.00;0.40;;;7.70;44.20;;;;;;5074507;28;20411;-50
2022/01/28 08:11:30;;;;;;;1.55;0.75;;;7.80;44.20;;;;;;5074566;28;20169;-50
2022/01/28 08:13:56;;;;;;;1.00;0.50;;;8.00;44.10;;;;;;5074474;28;20183;-50
2022/01/28 08:16:22;;;;;;;1.85;0.60;;;8.00;43.20;;;;;;5074561;28;20203;-50
2022/01/28 08:18:48;;;;;;;1.60;0.55;;;8.00;42.90;;;;;;5074337;28;20169;-50
2022/01/28 08:21:16;;;;;;;4.73;0.87;;;7.90;43.70;;;;;;5072986;28;20594;-50
2022/01/28 08:23:41;;;;;;;4.47;0.50;;;7.90;43.20;;;;;;5074111;28;20451;-50
2022/01/28 08:26:08;;;;;;;1.10;0.43;;;7.90;42.90;;;;;;5074233;28;20172;-50
2022/01/28 08:28:34;;;;;;;1.15;0.40;;;7.80;43.30;;;;;;5073011;28;20431;-50
2022/01/28 08:31:00;;;;;;;2.45;0.40;;;8.00;43.20;;;;;;5074255;28;20175;-50
2022/01/28 08:33:26;;;;;;;2.08;0.90;;;7.90;43.50;;;;;;5074434;28;20177;-50
2022/01/28 08:35:53;;;;;;;2.83;0.47;;;7.90;44.10;;;;;;5073909;28;20216;-50
2022/01/28 08:38:30;;;;;;;1.40;0.47;;;7.90;44.10;;;;;;5074191;28;20177;-50
2022/01/28 08:40:58;;;;;;;1.00;0.30;;;7.90;44.60;;;;;;5073534;28;20155;-50
2022/01/28 08:43:24;;;;;;;3.10;0.68;;;7.70;45.00;;;;;;5074120;28;20173;-50
2022/01/28 08:45:50;;;;;;;1.57;0.40;;;7.80;44.60;;;;;;5072531;28;20172;-50
2022/01/28 08:48:16;;;;;;;2.40;0.83;;;7.90;44.10;;;;;;5073804;28;20490;-50
2022/01/28 08:50:42;;;;;;;5.73;0.83;;;7.70;44.80;;;;;;5073791;28;20168;-50
2022/01/28 08:53:08;;;;;;;1.08;0.50;;;7.60;45.10;;;;;;5073718;28;20286;-50
2022/01/28 08:55:34;;;;;;;2.67;0.65;;;7.70;45.30;;;;;;5073621;28;20288;-50
2022/01/28 08:58:00;;;;;;;1.10;0.40;;;7.70;44.90;;;;;;5073857;28;20739;-50
2022/01/28 09:00:25;;;;;;;1.83;0.60;;;7.70;44.60;;;;;;5073749;28;20477;-50
2022/01/28 09:02:51;;;;;;;1.00;0.33;;;7.90;44.50;;;;;;5072529;28;20169;-50
2022/01/28 09:05:18;;;;;;;2.40;0.50;;;7.80;44.50;;;;;;5073798;28;20160;-50
2022/01/28 09:07:44;;;;;;;2.17;0.50;;;7.70;44.30;;;;;;5073533;28;20412;-50
2022/01/28 09:10:18;;;;;;;2.40;0.70;;;7.70;44.50;;;;;;5073577;28;20579;-50
2022/01/28 09:15:30;;;;;;;2.20;0.52;;;7.80;44.10;;;;;;5073458;28;20206;-50
2022/01/28 09:17:57;;;;;;;1.02;0.30;;;7.80;43.30;;;;;;5073805;28;20173;-50
2022/01/28 09:20:22;;;;;;;1.42;0.88;;;7.80;43.20;;;;;;5073322;28;20668;-50
2022/01/28 09:22:48;;;;;;;10.83;1.13;;;7.90;42.80;;;;;;5073380;28;20192;-50
2022/01/28 09:25:14;;;;;;;1.10;0.50;;;8.00;42.90;;;;;;5073340;28;20729;-50
2022/01/28 09:27:40;;;;;;;1.63;0.98;;;8.00;42.30;;;;;;5073397;28;20515;-50
2022/01/28 09:30:07;;;;;;;1.20;0.50;;;8.00;42.90;;;;;;5073579;28;20251;-50
2022/01/28 09:32:33;;;;;;;1.20;0.63;;;8.00;42.20;;;;;;5073322;28;20652;-50
2022/01/28 09:34:58;;;;;;;2.27;0.77;;;8.00;42.20;;;;;;5073316;28;20193;-50
2022/01/28 09:37:24;;;;;;;1.50;0.90;;;8.00;42.60;;;;;;5073340;28;20570;-50
2022/01/28 09:39:50;;;;;;;4.43;0.80;;;7.80;42.80;;;;;;5073198;28;20166;-50
2022/01/28 09:42:19;;;;;;;1.57;0.50;;;7.80;43.00;;;;;;5071965;28;20547;-50
2022/01/28 09:44:45;;;;;;;3.17;0.50;;;7.80;42.60;;;;;;5073200;28;20185;-50
2022/01/28 09:47:11;;;;;;;2.20;0.40;;;7.90;42.80;;;;;;5073173;28;20256;-50
2022/01/28 09:49:41;;;;;;;3.65;0.70;;;8.00;42.30;;;;;;5073355;28;20173;-50
2022/01/28 09:52:09;;;;;;;1.08;0.45;;;8.00;42.30;;;;;;5075313;28;20705;-49
2022/01/28 09:54:36;;;;;;;1.10;0.50;;;8.00;42.20;;;;;;5077066;28;20165;-50
2022/01/28 09:57:04;;;;;;;1.30;0.60;;;8.00;42.50;;;;;;5076969;28;20281;-50
2022/01/28 09:59:30;;;;;;;1.30;1.10;;;8.10;41.70;;;;;;5077012;28;20565;-50
2022/01/28 10:01:55;;;;;;;1.30;0.60;;;8.10;41.60;;;;;;5076941;28;20173;-50
2022/01/28 10:04:22;;;;;;;3.67;0.33;;;8.00;41.90;;;;;;5075745;28;20192;-50
2022/01/28 10:06:49;;;;;;;2.75;1.40;;;8.10;42.00;;;;;;5076805;28;20172;-50
2022/01/28 10:09:18;;;;;;;1.17;0.70;;;8.20;41.50;;;;;;5076801;28;20251;-50
2022/01/28 10:11:47;;;;;;;4.47;0.70;;;8.30;41.30;;;;;;5077035;28;20169;-50
2022/01/28 10:14:20;;;;;;;1.85;0.70;;;8.20;41.50;;;;;;5075926;28;20192;-50
2022/01/28 10:17:02;;;;;;;1.85;0.70;;;8.20;41.60;;;;;;5076691;28;20211;-50
2022/01/28 10:19:38;;;;;;;2.33;1.02;;;8.20;41.50;;;;;;5076819;28;20206;-50
2022/01/28 10:22:16;;;;;;;4.53;0.90;;;8.30;41.40;;;;;;5076549;28;20674;-50
2022/01/28 10:24:41;;;;;;;6.05;0.80;;;8.20;41.50;;;;;;5076448;28;20227;-50
2022/01/28 10:27:09;;;;;;;1.00;0.30;;;8.30;41.50;;;;;;5076479;28;20217;-50
2022/01/28 10:29:37;;;;;;;1.05;0.55;;;8.30;41.30;;;;;;5076400;28;20167;-50
2022/01/28 10:32:27;;;;;;;2.08;1.00;;;8.30;41.40;;;;;;5076342;28;20170;-50
2022/01/28 10:34:54;;;;;;;1.90;0.88;;;8.20;41.60;;;;;;5076542;28;20181;-50
2022/01/28 10:37:30;;;;;;;2.20;0.70;;;8.30;41.70;;;;;;5076351;28;20184;-50
2022/01/28 10:39:57;;;;;;;1.48;0.57;;;8.20;41.50;;;;;;5076336;28;20173;-50
2022/01/28 10:42:25;;;;;;;1.55;0.85;;;8.20;41.70;;;;;;5076407;28;20179;-50
2022/01/28 10:44:54;;;;;;;1.77;1.30;;;8.20;41.80;;;;;;5076132;28;20249;-50
2022/01/28 10:47:43;;;;;;;1.00;0.40;;;8.20;42.00;;;;;;5076439;28;20544;-50
2022/01/28 10:50:31;;;;;;;4.72;0.88;;;8.30;41.90;;;;;;5076054;28;20160;-50
2022/01/28 10:53:10;;;;;;;4.38;1.48;;;8.30;41.70;;;;;;5076090;28;20182;-50
2022/01/28 10:55:53;;;;;;;3.25;1.30;;;8.30;41.90;;;;;;5076322;28;20528;-50
2022/01/28 10:58:21;;;;;;;1.20;0.75;;;8.30;41.70;;;;;;5076183;28;20244;-50
2022/01/28 11:00:50;;;;;;;1.48;0.70;;;8.40;41.40;;;;;;5075924;28;20305;-50
2022/01/28 11:03:20;;;;;;;1.95;0.75;;;8.30;41.10;;;;;;5075207;28;20223;-50
2022/01/28 11:05:46;;;;;;;1.13;0.52;;;8.30;41.60;;;;;;5076132;28;20213;-50
2022/01/28 11:08:13;;;;;;;8.00;1.17;;;8.50;41.40;;;;;;5074547;28;20183;-50
2022/01/28 11:10:40;;;;;;;2.30;0.93;;;8.50;40.50;;;;;;5075766;28;20407;-50
2022/01/28 11:13:06;;;;;;;1.10;0.50;;;8.40;40.60;;;;;;5075620;28;20183;-49
2022/01/28 11:15:33;;;;;;;2.33;0.90;;;8.40;40.40;;;;;;5074296;28;20191;-50
2022/01/28 11:18:01;;;;;;;8.77;1.05;;;8.40;40.40;;;;;;5075585;28;20616;-50
2022/01/28 11:20:49;;;;;;;1.60;0.85;;;8.40;40.30;;;;;;5075527;28;20225;-50
2022/01/28 11:23:33;;;;;;;1.30;0.50;;;8.50;40.30;;;;;;5075291;28;20200;-50
2022/01/28 11:26:37;;;;;;;10.35;0.95;;;8.30;39.90;;;;;;5074108;28;20172;-50
2022/01/28 11:29:17;;;;;;;1.10;0.50;;;8.30;40.20;;;;;;5075440;28;20266;-50
2022/01/28 11:31:48;;;;;;;1.52;0.95;;;8.40;40.20;;;;;;5075345;28;20161;-50
2022/01/28 11:34:18;;;;;;;1.85;0.93;;;8.50;40.20;;;;;;5075246;28;20167;-50
2022/01/28 11:36:45;;;;;;;7.63;0.75;;;8.50;39.80;;;;;;5075362;28;20528;-50
2022/01/28 11:39:31;;;;;;;1.00;0.45;;;8.50;40.00;;;;;;5073884;28;20179;-50
2022/01/28 11:42:10;;;;;;;1.10;0.30;;;8.60;40.00;;;;;;5075124;28;20198;-50
2022/01/28 11:44:50;;;;;;;2.65;0.68;;;8.60;39.60;;;;;;5075135;28;20148;-50
2022/01/28 11:47:27;;;;;;;1.60;0.65;;;8.50;39.70;;;;;;5075024;28;20628;-50
2022/01/28 11:50:14;;;;;;;1.30;0.70;;;8.50;40.10;;;;;;5073625;28;20195;-50
2022/01/28 11:52:49;;;;;;;1.90;0.38;;;8.50;40.00;;;;;;5075049;28;20155;-50
2022/01/28 11:55:15;;;;;;;1.40;0.57;;;8.60;39.90;;;;;;5074716;28;20184;-50
2022/01/28 11:58:02;;;;;;;1.43;1.07;;;8.50;39.50;;;;;;5075082;28;20529;-50
2022/01/28 12:00:44;;;;;;;1.02;0.57;;;8.60;39.20;;;;;;5074998;28;20161;-50
2022/01/28 12:03:24;;;;;;;1.80;0.63;;;8.60;38.60;;;;;;5074554;28;20176;-50
2022/01/28 12:05:56;;;;;;;1.65;0.65;;;8.60;39.40;;;;;;5074639;28;20684;-50
2022/01/28 12:08:27;;;;;;;5.05;0.70;;;8.60;39.00;;;;;;5074658;28;20183;-50
2022/01/28 12:10:54;;;;;;;3.50;0.85;;;8.60;39.10;;;;;;5074597;28;20163;-50
2022/01/28 12:13:31;;;;;;;1.73;1.02;;;8.70;39.00;;;;;;5074276;28;20165;-50
2022/01/28 12:16:04;;;;;;;7.22;1.05;;;8.70;39.10;;;;;;5073873;28;20273;-50
2022/01/28 12:18:53;;;;;;;4.10;1.20;;;8.80;38.30;;;;;;5074355;28;20266;-50
2022/01/28 12:21:22;;;;;;;1.40;0.50;;;8.60;38.90;;;;;;5074362;28;20160;-50
2022/01/28 12:23:49;;;;;;;1.92;0.50;;;8.60;39.60;;;;;;5072867;28;20281;-50
2022/01/28 12:26:19;;;;;;;1.20;0.52;;;8.60;39.50;;;;;;5074490;28;20168;-50
2022/01/28 12:28:54;;;;;;;1.30;0.77;;;8.60;39.50;;;;;;5074077;28;20611;-50
2022/01/28 12:31:29;;;;;;;0.95;0.20;;;8.60;39.90;;;;;;5074261;28;20152;-50
2022/01/28 12:34:01;;;;;;;5.22;0.93;;;8.60;39.40;;;;;;5072790;28;20166;-50
2022/01/28 12:36:33;;;;;;;2.75;0.55;;;8.70;39.10;;;;;;5074099;28;20308;-50
2022/01/28 12:39:21;;;;;;;3.47;1.00;;;8.70;38.50;;;;;;5073997;28;20175;-50
2022/01/28 12:41:55;;;;;;;1.75;0.60;;;8.70;39.10;;;;;;5074218;28;20207;-50
2022/01/28 12:44:22;;;;;;;1.30;0.60;;;8.70;39.10;;;;;;5074149;28;20247;-50
2022/01/28 12:46:56;;;;;;;1.42;0.50;;;8.70;38.70;;;;;;5073876;28;20167;-50
2022/01/28 12:49:33;;;;;;;2.05;0.50;;;8.80;38.20;;;;;;5073826;28;20220;-50
2022/01/28 12:52:02;;;;;;;1.70;0.70;;;8.90;38.10;;;;;;5073797;28;20606;-50
2022/01/28 12:54:32;;;;;;;1.80;0.85;;;9.00;38.30;;;;;;5072525;28;20164;-50
2022/01/28 12:56:57;;;;;;;4.93;0.88;;;9.00;38.10;;;;;;5073680;28;20195;-50
2022/01/28 12:59:23;;;;;;;1.90;1.30;;;9.20;37.70;;;;;;5073907;28;20529;-50
2022/01/28 13:01:53;;;;;;;1.73;0.97;;;9.50;37.70;;;;;;5073601;28;20164;-50
2022/01/28 13:04:22;;;;;;;5.80;0.70;;;9.60;36.80;;;;;;5073870;28;20173;-50
2022/01/28 13:09:22;;;;;;;1.90;0.93;;;9.40;35.80;;;;;;5073412;28;20245;-50
2022/01/28 13:12:01;;;;;;;1.58;0.60;;;9.40;37.70;;;;;;5073934;28;20180;-50
2022/01/28 13:14:32;;;;;;;2.65;0.60;;;9.30;36.10;;;;;;5073720;28;20686;-50
2022/01/28 13:17:00;;;;;;;1.27;0.75;;;9.20;36.90;;;;;;5073653;28;20203;-50
2022/01/28 13:19:27;;;;;;;1.55;0.70;;;9.20;36.70;;;;;;5073673;28;20642;-50
2022/01/28 13:21:54;;;;;;;1.10;0.50;;;9.40;37.00;;;;;;5073401;28;20185;-50
2022/01/28 13:24:25;;;;;;;2.55;1.05;;;9.40;36.40;;;;;;5073299;28;20220;-50
2022/01/28 13:27:09;;;;;;;2.25;1.50;;;9.50;36.40;;;;;;5073205;28;20251;-50
2022/01/28 13:29:39;;;;;;;1.90;0.90;;;9.90;36.30;;;;;;5073531;28;20551;-50
2022/01/28 13:32:09;;;;;;;2.25;0.85;;;10.20;35.30;;;;;;5073130;28;20159;-50
2022/01/28 13:34:53;;;;;;;3.85;0.80;;;10.20;34.90;;;;;;5071949;28;20203;-50
2022/01/28 13:37:39;;;;;;;3.80;1.00;;;10.10;34.80;;;;;;5073435;28;20165;-50
2022/01/28 13:40:23;;;;;;;1.30;0.50;;;10.10;35.20;;;;;;5073158;28;20157;-50
2022/01/28 13:42:59;;;;;;;1.60;0.90;;;10.10;35.50;;;;;;5073182;28;20210;-50
2022/01/28 13:45:35;;;;;;;2.85;0.65;;;10.10;35.00;;;;;;5073070;28;20172;-50
2022/01/28 13:48:02;;;;;;;3.05;1.05;;;10.10;34.90;;;;;;5072797;28;20635;-50
2022/01/28 13:50:31;;;;;;;1.75;0.75;;;10.00;35.30;;;;;;5073003;28;20204;-50
2022/01/28 13:55:59;;;;;;;2.95;0.85;;;9.60;35.60;;;;;;5073079;28;20310;-50
2022/01/28 13:58:26;;;;;;;1.65;0.50;;;9.60;36.30;;;;;;5073072;28;20532;-50
2022/01/28 14:00:52;;;;;;;2.42;0.60;;;9.60;36.00;;;;;;5073041;28;20677;-50
2022/01/28 14:03:26;;;;;;;1.10;0.50;;;9.40;36.00;;;;;;5071731;28;20171;-50
2022/01/28 14:05:54;;;;;;;2.00;0.88;;;9.30;36.70;;;;;;5072987;28;20161;-50
2022/01/28 14:08:44;;;;;;;1.10;0.50;;;9.30;36.70;;;;;;5073362;28;20172;-50
2022/01/28 14:11:36;;;;;;;4.60;1.20;;;9.30;36.60;;;;;;5072946;28;20156;-50
2022/01/28 14:14:34;;;;;;;2.65;0.60;;;9.30;36.50;;;;;;5072964;28;20156;-50
2022/01/28 14:17:00;;;;;;;4.00;0.60;;;9.10;37.10;;;;;;5072846;28;20200;-50
2022/01/28 14:19:29;;;;;;;1.15;0.52;;;9.00;37.00;;;;;;5072821;28;20199;-50
2022/01/28 14:21:58;;;;;;;5.72;0.93;;;9.00;37.00;;;;;;5072843;28;20169;-50
2022/01/28 14:24:30;;;;;;;1.33;0.65;;;8.90;37.50;;;;;;5071274;28;20231;-50
2022/01/28 14:32:05;;;;;;;1.13;0.57;;;8.80;38.10;;;;;;5072106;28;20231;-50
2022/01/28 14:34:31;;;;;;;2.00;1.15;;;8.70;37.80;;;;;;5072907;28;20173;-50
2022/01/28 14:36:58;;;;;;;1.55;1.00;;;8.80;37.80;;;;;;5072596;28;20274;-50
2022/01/28 14:39:24;;;;;;;1.42;0.68;;;8.70;37.50;;;;;;5076133;28;20171;-50
2022/01/28 14:41:50;;;;;;;1.10;0.47;;;8.70;38.00;;;;;;5076264;28;20167;-50
2022/01/28 14:44:17;;;;;;;1.27;0.77;;;8.90;37.50;;;;;;5076240;28;20414;-50
2022/01/28 14:46:43;;;;;;;1.40;0.75;;;8.80;37.50;;;;;;5076140;28;20176;-50